createdAt,value
2022-11-01T00:02:09.161Z,98175.69
2022-11-01T00:04:36.334Z,98168.00
2022-11-01T00:07:03.440Z,98182.22
2022-11-01T00:09:30.390Z,98173.19
2022-11-01T00:11:57.344Z,98175.00
2022-11-01T00:14:24.265Z,98165.81
2022-11-01T00:16:51.333Z,98166.03
2022-11-01T00:19:18.529Z,98160.44
2022-11-01T00:21:45.659Z,98159.81
2022-11-01T00:24:12.740Z,98176.94
2022-11-01T00:26:39.744Z,98174.00
2022-11-01T00:29:06.722Z,98171.63
2022-11-01T00:31:33.727Z,98175.75
2022-11-01T00:34:03.793Z,98175.78
2022-11-01T00:36:32.200Z,98171.75
2022-11-01T00:38:59.109Z,98172.56
2022-11-01T00:41:26.068Z,98161.06
2022-11-01T00:43:53.086Z,98165.13
2022-11-01T00:46:20.043Z,98165.69
2022-11-01T00:48:46.954Z,98162.53
2022-11-01T00:51:13.923Z,98162.78
2022-11-01T00:53:41.004Z,98143.97
2022-11-01T00:56:08.568Z,98146.16
2022-11-01T00:58:35.574Z,98149.47
2022-11-01T01:01:02.745Z,98147.91
2022-11-01T01:03:29.902Z,98156.16
2022-11-01T01:05:57.275Z,98151.56
2022-11-01T01:08:25.153Z,98157.53
2022-11-01T01:10:52.396Z,98162.03
2022-11-01T01:13:20.039Z,98162.31
2022-11-01T01:15:47.828Z,98156.84
2022-11-01T01:18:15.341Z,98149.28
2022-11-01T01:20:42.330Z,98150.91
2022-11-01T01:23:09.467Z,98136.75
2022-11-01T01:25:40.751Z,98141.88
2022-11-01T01:28:08.231Z,98148.06
2022-11-01T01:30:35.143Z,98148.22
2022-11-01T01:33:02.112Z,98142.78
2022-11-01T01:35:29.075Z,98134.63
2022-11-01T01:37:56.261Z,98135.22
2022-11-01T01:40:23.273Z,98137.50
2022-11-01T01:42:50.316Z,98133.81
2022-11-01T01:45:31.874Z,98131.94
2022-11-01T01:48:13.390Z,98126.34
2022-11-01T01:50:51.903Z,98132.22
2022-11-01T01:53:29.247Z,98130.31
2022-11-01T01:56:07.103Z,98124.72
2022-11-01T01:58:47.693Z,98133.31
2022-11-01T02:01:15.141Z,98132.28
2022-11-01T02:03:43.450Z,98130.75
2022-11-01T02:06:20.267Z,98134.00
2022-11-01T02:08:51.947Z,98134.00
2022-11-01T02:11:19.736Z,98116.03
2022-11-01T02:13:47.150Z,98111.56
2022-11-01T02:16:40.005Z,98120.34
2022-11-01T02:19:40.158Z,98123.72
2022-11-01T02:22:28.792Z,98112.50
2022-11-01T02:25:39.565Z,98118.69
2022-11-01T02:28:43.821Z,98126.75
2022-11-01T02:31:40.436Z,98127.75
2022-11-01T02:34:31.410Z,98128.97
2022-11-01T02:37:13.078Z,98131.41
2022-11-01T02:39:47.687Z,98133.25
2022-11-01T02:42:29.308Z,98122.53
2022-11-01T02:45:05.668Z,98129.13
2022-11-01T02:47:34.005Z,98129.84
2022-11-01T02:50:09.525Z,98133.19
2022-11-01T02:52:40.782Z,98135.56
2022-11-01T02:55:30.979Z,98131.38
2022-11-01T02:58:01.738Z,98144.22
2022-11-01T03:00:35.451Z,98141.94
2022-11-01T03:03:28.159Z,98139.53
2022-11-01T03:06:05.065Z,98141.31
2022-11-01T03:08:52.373Z,98146.53
2022-11-01T03:11:26.990Z,98151.41
2022-11-01T03:14:19.399Z,98157.53
2022-11-01T03:17:14.463Z,98159.59
2022-11-01T03:19:52.442Z,98169.19
2022-11-01T03:22:24.379Z,98171.66
2022-11-01T03:25:44.015Z,98171.41
2022-11-01T03:28:23.051Z,98176.09
2022-11-01T03:31:13.093Z,98168.25
2022-11-01T03:33:49.034Z,98170.13
2022-11-01T03:36:18.173Z,98168.72
2022-11-01T03:38:54.493Z,98164.09
2022-11-01T03:41:24.856Z,98178.25
2022-11-01T03:43:52.852Z,98174.81
2022-11-01T03:46:20.523Z,98180.59
2022-11-01T03:48:47.644Z,98184.00
2022-11-01T03:51:14.779Z,98198.53
2022-11-01T03:53:41.660Z,98195.72
2022-11-01T03:56:08.658Z,98203.25
2022-11-01T03:58:41.852Z,98207.84
2022-11-01T04:01:11.460Z,98203.94
2022-11-01T04:03:39.440Z,98219.00
2022-11-01T04:06:07.026Z,98210.31
2022-11-01T04:08:34.448Z,98212.91
2022-11-01T04:11:01.423Z,98223.47
2022-11-01T04:13:28.328Z,98224.09
2022-11-01T04:16:14.158Z,98232.63
2022-11-01T04:18:59.346Z,98216.03
2022-11-01T04:21:26.897Z,98219.56
2022-11-01T04:23:53.811Z,98227.22
2022-11-01T04:26:23.228Z,98242.09
2022-11-01T04:28:59.501Z,98248.16
2022-11-01T04:31:30.393Z,98247.25
2022-11-01T04:33:59.240Z,98248.00
2022-11-01T04:36:27.004Z,98251.56
2022-11-01T04:38:57.168Z,98236.19
2022-11-01T04:41:29.147Z,98244.03
2022-11-01T04:43:59.012Z,98251.25
2022-11-01T04:46:31.245Z,98240.28
2022-11-01T04:49:01.090Z,98253.00
2022-11-01T04:51:28.514Z,98248.41
2022-11-01T04:53:59.645Z,98240.72
2022-11-01T04:56:28.312Z,98254.22
2022-11-01T04:58:56.961Z,98253.22
2022-11-01T05:01:24.295Z,98262.66
2022-11-01T05:03:52.275Z,98264.50
2022-11-01T05:06:19.855Z,98267.06
2022-11-01T05:08:47.655Z,98270.66
2022-11-01T05:11:15.361Z,98281.31
2022-11-01T05:13:42.504Z,98296.16
2022-11-01T05:16:19.349Z,98285.34
2022-11-01T05:18:47.072Z,98288.00
2022-11-01T05:21:14.113Z,98286.25
2022-11-01T05:23:41.083Z,98298.91
2022-11-01T05:26:08.066Z,98291.16
2022-11-01T05:28:34.974Z,98295.06
2022-11-01T05:31:01.889Z,98306.31
2022-11-01T05:33:29.030Z,98318.19
2022-11-01T05:35:55.965Z,98323.84
2022-11-01T05:38:22.959Z,98328.31
2022-11-01T05:40:50.697Z,98321.88
2022-11-01T05:43:17.690Z,98307.69
2022-11-01T05:45:44.609Z,98306.84
2022-11-01T05:48:12.061Z,98306.84
2022-11-01T05:50:39.028Z,98312.66
2022-11-01T05:53:08.079Z,98305.97
2022-11-01T05:55:35.746Z,98309.44
2022-11-01T05:58:03.105Z,98303.81
2022-11-01T06:00:30.438Z,98313.38
2022-11-01T06:02:59.062Z,98296.69
2022-11-01T06:05:27.282Z,98289.53
2022-11-01T06:07:54.252Z,98290.19
2022-11-01T06:10:21.427Z,98301.41
2022-11-01T06:12:48.434Z,98306.25
2022-11-01T06:15:15.586Z,98307.97
2022-11-01T06:17:42.703Z,98323.47
2022-11-01T06:20:11.286Z,98332.09
2022-11-01T06:22:38.914Z,98339.28
2022-11-01T06:25:06.966Z,98344.41
2022-11-01T06:27:33.938Z,98349.13
2022-11-01T06:30:00.887Z,98356.28
2022-11-01T06:32:27.856Z,98365.06
2022-11-01T06:34:54.786Z,98367.97
2022-11-01T06:37:21.933Z,98358.72
2022-11-01T06:39:49.003Z,98354.84
2022-11-01T06:42:15.963Z,98356.94
2022-11-01T06:44:43.152Z,98354.91
2022-11-01T06:47:12.455Z,98363.47
2022-11-01T06:49:40.055Z,98377.06
2022-11-01T06:52:08.923Z,98377.94
2022-11-01T06:54:35.865Z,98381.88
2022-11-01T06:57:02.853Z,98385.31
2022-11-01T06:59:29.885Z,98389.69
2022-11-01T07:01:57.093Z,98387.56
2022-11-01T07:04:24.262Z,98408.28
2022-11-01T07:06:51.370Z,98420.72
2022-11-01T07:09:18.329Z,98431.16
2022-11-01T07:11:45.690Z,98418.59
2022-11-01T07:14:12.715Z,98427.34
2022-11-01T07:16:40.005Z,98420.13
2022-11-01T07:19:07.788Z,98422.94
2022-11-01T07:21:34.739Z,98430.38
2022-11-01T07:24:01.889Z,98436.59
2022-11-01T07:26:28.854Z,98432.16
2022-11-01T07:28:55.791Z,98432.13
2022-11-01T07:31:23.592Z,98438.53
2022-11-01T07:33:50.590Z,98435.59
2022-11-01T07:36:18.171Z,98439.09
2022-11-01T07:38:45.329Z,98442.06
2022-11-01T07:41:12.284Z,98435.81
2022-11-01T07:43:39.287Z,98429.28
2022-11-01T07:46:07.268Z,98427.81
2022-11-01T07:48:36.708Z,98423.03
2022-11-01T07:51:05.976Z,98427.91
2022-11-01T07:53:33.639Z,98435.44
2022-11-01T07:56:01.842Z,98444.53
2022-11-01T07:58:29.045Z,98440.50
2022-11-01T08:00:56.511Z,98441.66
2022-11-01T08:03:23.976Z,98451.94
2022-11-01T08:05:50.970Z,98454.50
2022-11-01T08:08:18.254Z,98445.91
2022-11-01T08:10:45.576Z,98441.34
2022-11-01T08:13:21.371Z,98438.25
2022-11-01T08:15:50.181Z,98443.44
2022-11-01T08:18:18.986Z,98441.47
2022-11-01T08:20:46.304Z,98463.31
2022-11-01T08:23:13.455Z,98468.72
2022-11-01T08:25:40.665Z,98471.47
2022-11-01T08:28:13.161Z,98473.22
2022-11-01T08:30:42.311Z,98478.66
2022-11-01T08:33:09.833Z,98473.78
2022-11-01T08:35:37.091Z,98477.09
2022-11-01T08:38:04.666Z,98476.78
2022-11-01T08:40:33.117Z,98476.97
2022-11-01T08:43:00.632Z,98485.13
2022-11-01T08:45:27.968Z,98489.03
2022-11-01T08:47:59.936Z,98495.94
2022-11-01T08:50:27.611Z,98487.84
2022-11-01T08:52:54.755Z,98480.28
2022-11-01T08:55:22.802Z,98485.13
2022-11-01T08:57:49.822Z,98483.03
2022-11-01T09:00:17.558Z,98490.84
2022-11-01T09:02:44.985Z,98489.88
2022-11-01T09:05:12.060Z,98504.38
2022-11-01T09:07:39.203Z,98500.00
2022-11-01T09:10:07.004Z,98501.13
2022-11-01T09:12:34.395Z,98501.38
2022-11-01T09:15:01.495Z,98505.22
2022-11-01T09:17:29.229Z,98504.00
2022-11-01T09:19:56.279Z,98497.84
2022-11-01T09:22:23.621Z,98495.59
2022-11-01T09:24:51.470Z,98494.97
2022-11-01T09:27:18.513Z,98504.97
2022-11-01T09:29:48.089Z,98503.09
2022-11-01T09:32:18.046Z,98508.88
2022-11-01T09:34:45.268Z,98512.59
2022-11-01T09:37:12.337Z,98514.97
2022-11-01T09:39:39.325Z,98516.63
2022-11-01T09:42:29.702Z,98519.66
2022-11-01T09:45:01.493Z,98517.19
2022-11-01T09:47:30.816Z,98521.16
2022-11-01T09:50:22.452Z,98521.50
2022-11-01T09:52:55.034Z,98521.72
2022-11-01T09:55:58.001Z,98520.69
2022-11-01T09:59:07.150Z,98517.41
2022-11-01T10:02:30.846Z,98518.09
2022-11-01T10:05:18.948Z,98524.44
2022-11-01T10:08:02.874Z,98525.41
2022-11-01T10:10:36.757Z,98535.28
2022-11-01T10:13:38.029Z,98521.72
2022-11-01T10:16:32.339Z,98521.88
2022-11-01T10:19:18.829Z,98519.97
2022-11-01T10:21:53.130Z,98530.75
2022-11-01T10:24:51.632Z,98536.44
2022-11-01T10:27:42.204Z,98529.84
2022-11-01T10:30:18.002Z,98522.38
2022-11-01T10:33:03.827Z,98524.06
2022-11-01T10:35:43.112Z,98516.16
2022-11-01T10:39:04.598Z,98522.28
2022-11-01T10:41:41.068Z,98520.56
2022-11-01T10:44:38.554Z,98512.91
2022-11-01T10:47:08.290Z,98521.53
2022-11-01T10:50:04.843Z,98521.31
2022-11-01T10:53:06.649Z,98526.50
2022-11-01T10:55:50.335Z,98521.88
2022-11-01T10:59:00.597Z,98515.88
2022-11-01T11:01:32.085Z,98521.47
2022-11-01T11:04:03.834Z,98520.81
2022-11-01T11:06:39.890Z,98528.41
2022-11-01T11:09:21.216Z,98523.25
2022-11-01T11:11:50.510Z,98525.38
2022-11-01T11:14:19.789Z,98529.50
2022-11-01T11:16:58.118Z,98532.56
2022-11-01T11:19:30.770Z,98529.97
2022-11-01T11:21:59.965Z,98520.22
2022-11-01T11:24:40.102Z,98530.38
2022-11-01T11:27:34.383Z,98527.78
2022-11-01T11:30:10.265Z,98525.25
2022-11-01T11:32:39.816Z,98525.66
2022-11-01T11:35:17.969Z,98525.84
2022-11-01T11:38:14.564Z,98520.84
2022-11-01T11:40:41.321Z,98528.28
2022-11-01T11:43:36.101Z,98520.34
2022-11-01T11:46:22.770Z,98516.84
2022-11-01T11:49:04.547Z,98520.47
2022-11-01T11:51:37.776Z,98519.47
2022-11-01T11:54:29.191Z,98520.75
2022-11-01T11:57:20.664Z,98523.81
2022-11-01T11:59:55.359Z,98520.97
2022-11-01T12:02:26.517Z,98515.97
2022-11-01T12:04:59.540Z,98524.00
2022-11-01T12:07:31.599Z,98528.41
2022-11-01T12:10:30.979Z,98518.19
2022-11-01T12:12:58.350Z,98533.09
2022-11-01T12:15:30.736Z,98530.00
2022-11-01T12:18:18.202Z,98528.75
2022-11-01T12:20:52.392Z,98529.84
2022-11-01T12:23:32.937Z,98521.25
2022-11-01T12:26:05.147Z,98523.19
2022-11-01T12:28:42.102Z,98523.34
2022-11-01T12:31:16.577Z,98526.13
2022-11-01T12:33:58.581Z,98531.75
2022-11-01T12:36:33.711Z,98526.09
2022-11-01T12:39:32.093Z,98532.38
2022-11-01T12:42:00.663Z,98534.72
2022-11-01T12:44:37.347Z,98533.03
2022-11-01T12:47:48.878Z,98535.00
2022-11-01T12:50:29.011Z,98543.56
2022-11-01T12:53:15.949Z,98547.69
2022-11-01T12:55:43.642Z,98548.09
2022-11-01T12:58:18.497Z,98545.03
2022-11-01T13:01:13.697Z,98555.56
2022-11-01T13:04:17.977Z,98553.38
2022-11-01T13:07:05.860Z,98550.94
2022-11-01T13:10:02.955Z,98545.63
2022-11-01T13:12:57.286Z,98543.97
2022-11-01T13:16:06.275Z,98546.81
2022-11-01T13:18:56.616Z,98551.97
2022-11-01T13:21:51.940Z,98539.63
2022-11-01T13:25:05.479Z,98530.13
2022-11-01T13:27:48.304Z,98532.50
2022-11-01T13:30:19.599Z,98535.25
2022-11-01T13:33:27.004Z,98537.06
2022-11-01T13:36:02.428Z,98537.28
2022-11-01T13:38:59.280Z,98535.41
2022-11-01T13:41:43.121Z,98540.00
2022-11-01T13:44:17.705Z,98541.31
2022-11-01T13:47:08.239Z,98536.75
2022-11-01T13:49:55.617Z,98531.78
2022-11-01T13:52:28.775Z,98536.81
2022-11-01T13:55:26.060Z,98535.81
2022-11-01T13:57:54.365Z,98531.53
2022-11-01T14:00:46.516Z,98541.22
2022-11-01T14:03:32.815Z,98537.56
2022-11-01T14:06:26.149Z,98540.34
2022-11-01T14:09:30.159Z,98552.19
2022-11-01T14:12:06.048Z,98556.59
2022-11-01T14:14:32.954Z,98548.38
2022-11-01T14:17:20.178Z,98540.00
2022-11-01T14:19:56.443Z,98533.28
2022-11-01T14:22:26.062Z,98532.88
2022-11-01T14:25:13.593Z,98541.38
2022-11-01T14:27:50.578Z,98538.59
2022-11-01T14:30:21.703Z,98532.94
2022-11-01T14:32:58.467Z,98538.34
2022-11-01T14:35:35.406Z,98547.53
2022-11-01T14:38:14.666Z,98545.47
2022-11-01T14:40:56.671Z,98546.44
2022-11-01T14:43:31.004Z,98549.78
2022-11-01T14:45:58.669Z,98546.28
2022-11-01T14:49:05.658Z,98549.63
2022-11-01T14:51:41.893Z,98551.25
2022-11-01T14:54:31.938Z,98553.16
2022-11-01T14:56:59.841Z,98563.81
2022-11-01T14:59:34.488Z,98560.25
2022-11-01T15:02:05.491Z,98565.47
2022-11-01T15:04:42.535Z,98569.38
2022-11-01T15:07:33.931Z,98572.88
2022-11-01T15:10:13.489Z,98577.41
2022-11-01T15:12:51.849Z,98574.44
2022-11-01T15:15:26.570Z,98575.91
2022-11-01T15:18:05.862Z,98588.66
2022-11-01T15:20:40.567Z,98590.72
2022-11-01T15:23:18.358Z,98588.94
2022-11-01T15:25:52.896Z,98590.44
2022-11-01T15:28:26.965Z,98579.91
2022-11-01T15:30:58.078Z,98580.06
2022-11-01T15:33:29.222Z,98582.97
2022-11-01T15:36:04.441Z,98585.31
2022-11-01T15:38:40.247Z,98582.44
2022-11-01T15:41:39.710Z,98587.16
2022-11-01T15:44:16.629Z,98591.09
2022-11-01T15:46:43.806Z,98592.38
2022-11-01T15:49:21.102Z,98586.72
2022-11-01T15:51:54.594Z,98585.50
2022-11-01T15:54:47.471Z,98584.09
2022-11-01T15:57:35.903Z,98593.19
2022-11-01T16:00:17.858Z,98596.94
2022-11-01T16:02:53.702Z,98595.28
2022-11-01T16:05:29.800Z,98587.22
2022-11-01T16:07:57.485Z,98598.66
2022-11-01T16:10:27.829Z,98597.81
2022-11-01T16:12:56.453Z,98594.06
2022-11-01T16:15:34.669Z,98605.38
2022-11-01T16:18:16.545Z,98612.94
2022-11-01T16:20:47.246Z,98597.41
2022-11-01T16:23:28.542Z,98595.44
2022-11-01T16:26:08.054Z,98615.50
2022-11-01T16:28:46.377Z,98622.50
2022-11-01T16:31:26.864Z,98619.47
2022-11-01T16:33:56.129Z,98635.50
2022-11-01T16:36:38.798Z,98637.22
2022-11-01T16:39:31.724Z,98640.97
2022-11-01T16:41:59.695Z,98647.47
2022-11-01T16:44:27.148Z,98652.69
2022-11-01T16:46:55.308Z,98651.97
2022-11-01T16:49:29.063Z,98644.16
2022-11-01T16:51:56.781Z,98655.16
2022-11-01T16:54:27.005Z,98650.50
2022-11-01T16:56:58.408Z,98656.06
2022-11-01T16:59:34.367Z,98653.94
2022-11-01T17:02:11.488Z,98656.69
2022-11-01T17:04:40.806Z,98660.38
2022-11-01T17:07:12.070Z,98671.81
2022-11-01T17:09:39.864Z,98672.38
2022-11-01T17:12:08.159Z,98672.63
2022-11-01T17:14:37.470Z,98667.50
2022-11-01T17:17:12.861Z,98675.41
2022-11-01T17:19:44.381Z,98674.34
2022-11-01T17:22:26.282Z,98678.75
2022-11-01T17:24:56.000Z,98677.75
2022-11-01T17:27:23.056Z,98685.88
2022-11-01T17:29:51.566Z,98687.75
2022-11-01T17:32:19.010Z,98691.53
2022-11-01T17:34:48.189Z,98689.13
2022-11-01T17:37:17.251Z,98689.03
2022-11-01T17:39:44.293Z,98694.81
2022-11-01T17:42:11.685Z,98691.72
2022-11-01T17:44:38.874Z,98696.44
2022-11-01T17:47:05.880Z,98703.59
2022-11-01T17:49:33.364Z,98698.16
2022-11-01T17:52:01.057Z,98697.06
2022-11-01T17:54:28.062Z,98702.69
2022-11-01T17:56:55.258Z,98702.50
2022-11-01T17:59:22.399Z,98701.88
2022-11-01T18:01:49.617Z,98702.53
2022-11-01T18:04:16.897Z,98700.94
2022-11-01T18:06:44.057Z,98703.38
2022-11-01T18:09:25.643Z,98704.91
2022-11-01T18:12:10.113Z,98709.72
2022-11-01T18:15:25.065Z,98703.06
2022-11-01T18:18:22.035Z,98706.63
2022-11-01T18:21:18.242Z,98710.69
2022-11-01T18:23:46.284Z,98713.34
2022-11-01T18:26:23.083Z,98710.69
2022-11-01T18:29:13.896Z,98703.56
2022-11-01T18:31:46.952Z,98702.09
2022-11-01T18:34:48.388Z,98708.59
2022-11-01T18:38:09.302Z,98703.69
2022-11-01T18:40:57.529Z,98708.63
2022-11-01T18:43:28.869Z,98712.53
2022-11-01T18:48:44.491Z,98725.94
2022-11-01T18:51:24.213Z,98710.88
2022-11-01T18:54:23.873Z,98716.50
2022-11-01T18:57:23.753Z,98715.75
2022-11-01T18:59:53.574Z,98707.81
2022-11-01T19:02:30.542Z,98714.41
2022-11-01T19:05:19.740Z,98721.97
2022-11-01T19:08:11.777Z,98720.69
2022-11-01T19:10:42.382Z,98722.94
2022-11-01T19:13:31.563Z,98724.78
2022-11-01T19:16:02.992Z,98722.44
2022-11-01T19:18:30.703Z,98714.06
2022-11-01T19:21:01.057Z,98715.94
2022-11-01T19:23:40.774Z,98724.44
2022-11-01T19:26:39.532Z,98715.22
2022-11-01T19:29:16.257Z,98721.19
2022-11-01T19:31:45.425Z,98716.03
2022-11-01T19:34:27.804Z,98711.94
2022-11-01T19:36:56.031Z,98722.00
2022-11-01T19:39:41.565Z,98716.84
2022-11-01T19:42:31.446Z,98716.13
2022-11-01T19:45:13.327Z,98713.69
2022-11-01T19:47:43.903Z,98709.06
2022-11-01T19:50:22.001Z,98716.19
2022-11-01T19:52:55.929Z,98715.94
2022-11-01T19:55:46.860Z,98715.94
2022-11-01T19:58:27.920Z,98716.16
2022-11-01T20:01:19.937Z,98723.78
2022-11-01T20:03:52.802Z,98720.13
2022-11-01T20:06:32.919Z,98730.75
2022-11-01T20:09:24.581Z,98725.97
2022-11-01T20:11:52.455Z,98725.34
2022-11-01T20:14:20.037Z,98725.59
2022-11-01T20:16:47.168Z,98731.41
2022-11-01T20:19:17.482Z,98731.41
2022-11-01T20:21:45.381Z,98739.06
2022-11-01T20:24:12.959Z,98734.31
2022-11-01T20:26:40.478Z,98729.69
2022-11-01T20:29:07.490Z,98732.22
2022-11-01T20:31:34.625Z,98731.53
2022-11-01T20:34:01.862Z,98736.97
2022-11-01T20:36:29.035Z,98744.75
2022-11-01T20:38:56.199Z,98736.22
2022-11-01T20:41:23.610Z,98742.41
2022-11-01T20:43:50.702Z,98747.06
2022-11-01T20:46:17.817Z,98753.63
2022-11-01T20:48:45.382Z,98759.94
2022-11-01T20:51:13.400Z,98758.75
2022-11-01T20:53:41.292Z,98767.38
2022-11-01T20:56:09.247Z,98763.72
2022-11-01T20:58:40.305Z,98757.25
2022-11-01T21:01:17.495Z,98756.75
2022-11-01T21:03:44.889Z,98760.56
2022-11-01T21:06:17.697Z,98758.81
2022-11-01T21:08:49.173Z,98766.91
2022-11-01T21:11:46.068Z,98768.78
2022-11-01T21:14:16.978Z,98762.31
2022-11-01T21:16:44.294Z,98766.56
2022-11-01T21:19:22.076Z,98758.75
2022-11-01T21:21:56.056Z,98761.84
2022-11-01T21:24:28.551Z,98753.78
2022-11-01T21:27:26.648Z,98760.19
2022-11-01T21:30:15.600Z,98763.94
2022-11-01T21:32:45.406Z,98774.16
2022-11-01T21:35:38.128Z,98760.31
2022-11-01T21:38:32.323Z,98771.94
2022-11-01T21:40:59.485Z,98762.91
2022-11-01T21:43:31.772Z,98772.31
2022-11-01T21:45:58.780Z,98781.44
2022-11-01T21:48:32.324Z,98786.31
2022-11-01T21:50:59.360Z,98775.53
2022-11-01T21:53:26.331Z,98781.22
2022-11-01T21:55:53.311Z,98776.81
2022-11-01T21:58:21.938Z,98777.53
2022-11-01T22:00:48.985Z,98772.75
2022-11-01T22:03:15.998Z,98769.16
2022-11-01T22:05:43.005Z,98771.03
2022-11-01T22:08:09.985Z,98768.91
2022-11-01T22:10:36.963Z,98768.56
2022-11-01T22:13:06.781Z,98776.94
2022-11-01T22:15:34.050Z,98784.31
2022-11-01T22:18:04.037Z,98785.53
2022-11-01T22:20:33.414Z,98785.25
2022-11-01T22:23:00.796Z,98781.09
2022-11-01T22:25:27.948Z,98785.75
2022-11-01T22:27:55.152Z,98784.88
2022-11-01T22:30:22.162Z,98779.28
2022-11-01T22:32:49.143Z,98782.56
2022-11-01T22:35:16.109Z,98783.88
2022-11-01T22:37:43.115Z,98771.53
2022-11-01T22:40:12.875Z,98784.59
2022-11-01T22:42:41.350Z,98792.97
2022-11-01T22:45:18.586Z,98791.13
2022-11-01T22:47:46.847Z,98794.56
2022-11-01T22:50:22.428Z,98795.84
2022-11-01T22:52:50.290Z,98801.31
2022-11-01T22:55:27.237Z,98795.50
2022-11-01T22:58:00.890Z,98796.41
2022-11-01T23:00:29.880Z,98803.94
2022-11-01T23:03:03.240Z,98804.38
2022-11-01T23:05:30.581Z,98807.97
2022-11-01T23:08:21.317Z,98800.44
2022-11-01T23:10:51.626Z,98811.47
2022-11-01T23:13:49.718Z,98818.28
2022-11-01T23:16:30.340Z,98817.16
2022-11-01T23:19:01.744Z,98814.38
2022-11-01T23:21:28.940Z,98809.88
2022-11-01T23:23:56.108Z,98819.09
2022-11-01T23:26:23.937Z,98823.41
2022-11-01T23:28:54.823Z,98819.03
2022-11-01T23:31:23.502Z,98810.38
2022-11-01T23:33:51.191Z,98815.06
2022-11-01T23:36:31.658Z,98820.03
2022-11-01T23:39:11.640Z,98826.25
2022-11-01T23:41:44.908Z,98825.84
2022-11-01T23:44:34.598Z,98825.03
2022-11-01T23:47:19.933Z,98826.09
2022-11-01T23:50:11.974Z,98834.47
2022-11-01T23:52:44.103Z,98827.59
2022-11-01T23:55:27.293Z,98830.56
2022-11-01T23:57:57.738Z,98832.56
